createdAt,value
2022-09-02T00:01:38.036Z,11.55
2022-09-02T00:04:13.800Z,11.63
2022-09-02T00:06:42.244Z,11.55
2022-09-02T00:09:11.251Z,11.45
2022-09-02T00:11:40.634Z,11.33
2022-09-02T00:14:11.191Z,11.47
2022-09-02T00:16:38.893Z,11.52
2022-09-02T00:19:05.988Z,11.51
2022-09-02T00:21:34.657Z,11.46
2022-09-02T00:24:03.785Z,11.42
2022-09-02T00:26:30.617Z,11.42
2022-09-02T00:28:57.370Z,11.33
2022-09-02T00:31:25.894Z,11.29
2022-09-02T00:33:53.556Z,11.22
2022-09-02T00:36:21.155Z,11.24
2022-09-02T00:38:47.941Z,11.27
2022-09-02T00:41:15.282Z,11.24
2022-09-02T00:43:46.945Z,11.23
2022-09-02T00:46:16.807Z,11.27
2022-09-02T00:49:10.834Z,11.00
2022-09-02T00:51:51.615Z,11.13
2022-09-02T00:54:20.634Z,11.25
2022-09-02T00:56:49.830Z,11.17
2022-09-02T00:59:48.829Z,11.18
2022-09-02T01:02:15.715Z,11.17
2022-09-02T01:04:43.377Z,11.21
2022-09-02T01:07:09.994Z,11.28
2022-09-02T01:09:38.033Z,11.15
2022-09-02T01:12:05.589Z,11.26
2022-09-02T01:14:32.288Z,11.29
2022-09-02T01:17:01.190Z,11.31
2022-09-02T01:19:38.832Z,11.15
2022-09-02T01:22:22.608Z,11.24
2022-09-02T01:24:49.456Z,11.15
2022-09-02T01:27:18.431Z,11.27
2022-09-02T01:29:46.415Z,11.21
2022-09-02T01:32:13.059Z,11.06
2022-09-02T01:34:39.695Z,11.15
2022-09-02T01:37:07.160Z,11.26
2022-09-02T01:39:33.823Z,11.35
2022-09-02T01:42:01.241Z,11.29
2022-09-02T01:44:27.973Z,11.27
2022-09-02T01:46:55.443Z,11.40
2022-09-02T01:49:22.600Z,11.37
2022-09-02T01:51:49.911Z,11.38
2022-09-02T01:54:16.499Z,11.35
2022-09-02T01:56:43.232Z,11.36
2022-09-02T01:59:11.812Z,11.40
2022-09-02T02:01:38.537Z,11.49
2022-09-02T02:04:05.253Z,11.49
2022-09-02T02:06:31.825Z,11.45
2022-09-02T02:08:58.372Z,11.57
2022-09-02T02:11:25.462Z,11.31
2022-09-02T02:13:52.144Z,11.39
2022-09-02T02:16:18.740Z,11.45
2022-09-02T02:18:45.296Z,11.42
2022-09-02T02:21:11.902Z,11.42
2022-09-02T02:23:38.701Z,11.47
2022-09-02T02:26:05.404Z,11.37
2022-09-02T02:28:31.924Z,11.25
2022-09-02T02:31:00.040Z,11.30
2022-09-02T02:33:36.274Z,11.29
2022-09-02T02:36:04.846Z,11.14
2022-09-02T02:38:36.467Z,11.30
2022-09-02T02:41:06.375Z,11.24
2022-09-02T02:43:34.859Z,11.22
2022-09-02T02:46:01.763Z,11.17
2022-09-02T02:48:28.645Z,11.11
2022-09-02T02:50:55.805Z,11.03
2022-09-02T02:53:22.610Z,11.03
2022-09-02T02:55:50.027Z,10.89
2022-09-02T02:58:18.323Z,10.85
2022-09-02T03:00:46.296Z,10.95
2022-09-02T03:03:13.300Z,11.08
2022-09-02T03:05:40.230Z,10.94
2022-09-02T03:08:09.637Z,10.87
2022-09-02T03:10:38.707Z,10.87
2022-09-02T03:13:05.960Z,10.97
2022-09-02T03:15:33.413Z,10.84
2022-09-02T03:18:00.157Z,10.86
2022-09-02T03:20:26.834Z,10.89
2022-09-02T03:22:56.545Z,10.83
2022-09-02T03:25:24.229Z,10.88
2022-09-02T03:27:52.208Z,10.87
2022-09-02T03:30:23.367Z,10.81
2022-09-02T03:32:50.835Z,10.87
2022-09-02T03:35:20.347Z,10.67
2022-09-02T03:37:48.475Z,10.73
2022-09-02T03:40:19.257Z,10.73
2022-09-02T03:42:47.377Z,10.76
2022-09-02T03:45:15.515Z,10.80
2022-09-02T03:47:50.959Z,10.70
2022-09-02T03:50:20.239Z,10.69
2022-09-02T03:52:47.266Z,10.35
2022-09-02T03:55:14.316Z,10.49
2022-09-02T03:57:40.969Z,10.44
2022-09-02T04:00:09.810Z,10.59
2022-09-02T04:02:36.473Z,10.49
2022-09-02T04:05:03.524Z,10.62
2022-09-02T04:07:30.065Z,10.63
2022-09-02T04:09:56.617Z,10.57
2022-09-02T04:12:23.545Z,10.36
2022-09-02T04:14:58.781Z,10.39
2022-09-02T04:17:25.390Z,10.36
2022-09-02T04:19:54.807Z,10.17
2022-09-02T04:22:21.525Z,10.20
2022-09-02T04:24:48.107Z,10.26
2022-09-02T04:27:14.669Z,10.20
2022-09-02T04:29:41.270Z,10.14
2022-09-02T04:32:07.831Z,10.15
2022-09-02T04:34:34.547Z,10.18
2022-09-02T04:37:01.098Z,10.20
2022-09-02T04:39:27.756Z,10.23
2022-09-02T04:41:54.488Z,10.15
2022-09-02T04:44:21.340Z,10.28
2022-09-02T04:46:50.301Z,10.16
2022-09-02T04:49:17.697Z,10.25
2022-09-02T04:51:44.381Z,10.20
2022-09-02T04:54:11.011Z,10.19
2022-09-02T04:56:38.529Z,10.11
2022-09-02T04:59:05.183Z,10.16
2022-09-02T05:01:34.288Z,10.15
2022-09-02T05:04:03.019Z,10.16
2022-09-02T05:06:29.953Z,10.16
2022-09-02T05:08:59.316Z,10.20
2022-09-02T05:11:28.563Z,10.24
2022-09-02T05:13:57.198Z,10.23
2022-09-02T05:16:30.941Z,10.19
2022-09-02T05:18:58.841Z,10.16
2022-09-02T05:21:26.164Z,10.17
2022-09-02T05:23:54.508Z,10.29
2022-09-02T05:26:22.742Z,10.16
2022-09-02T05:28:49.795Z,10.23
2022-09-02T05:31:18.392Z,10.39
2022-09-02T05:33:45.571Z,10.31
2022-09-02T05:36:15.953Z,10.35
2022-09-02T05:38:44.206Z,10.39
2022-09-02T05:41:19.797Z,10.41
2022-09-02T05:43:47.019Z,10.58
2022-09-02T05:46:17.854Z,10.57
2022-09-02T05:49:04.349Z,10.60
2022-09-02T05:51:32.662Z,10.69
2022-09-02T05:54:01.201Z,10.86
2022-09-02T05:56:27.889Z,10.90
2022-09-02T05:58:59.004Z,10.93
2022-09-02T06:01:28.277Z,11.03
2022-09-02T06:03:56.164Z,11.11
2022-09-02T06:06:23.902Z,11.13
2022-09-02T06:08:51.187Z,11.23
2022-09-02T06:11:18.424Z,11.35
2022-09-02T06:13:46.718Z,11.46
2022-09-02T06:16:16.209Z,11.59
2022-09-02T06:18:43.435Z,11.72
2022-09-02T06:21:10.050Z,11.76
2022-09-02T06:23:39.151Z,11.85
2022-09-02T06:26:08.832Z,11.96
2022-09-02T06:28:36.291Z,12.07
2022-09-02T06:31:10.933Z,12.25
2022-09-02T06:33:38.225Z,12.36
2022-09-02T06:36:10.233Z,12.46
2022-09-02T06:38:45.652Z,12.58
2022-09-02T06:41:16.044Z,12.75
2022-09-02T06:43:43.118Z,12.90
2022-09-02T06:46:18.931Z,12.99
2022-09-02T06:48:45.893Z,13.09
2022-09-02T06:51:20.442Z,13.26
2022-09-02T06:53:47.133Z,13.36
2022-09-02T06:56:14.190Z,13.48
2022-09-02T06:58:40.955Z,13.60
2022-09-02T07:01:11.996Z,13.64
2022-09-02T07:04:09.426Z,13.81
2022-09-02T07:06:39.733Z,14.04
2022-09-02T07:09:10.513Z,14.16
2022-09-02T07:11:40.944Z,14.24
2022-09-02T07:14:08.284Z,14.39
2022-09-02T07:16:42.810Z,14.46
2022-09-02T07:19:15.082Z,14.66
2022-09-02T07:21:47.532Z,14.82
2022-09-02T07:24:15.558Z,14.94
2022-09-02T07:26:44.687Z,15.03
2022-09-02T07:29:14.855Z,15.18
2022-09-02T07:31:48.932Z,15.30
2022-09-02T07:34:22.034Z,15.46
2022-09-02T07:36:53.485Z,15.55
2022-09-02T07:39:20.534Z,15.65
2022-09-02T07:41:50.366Z,15.74
2022-09-02T07:44:18.350Z,15.84
2022-09-02T07:46:46.877Z,15.91
2022-09-02T07:49:15.699Z,16.08
2022-09-02T07:51:46.372Z,16.27
2022-09-02T07:54:13.350Z,16.41
2022-09-02T07:56:40.829Z,16.55
2022-09-02T07:59:07.498Z,16.67
2022-09-02T08:01:34.571Z,16.75
2022-09-02T08:04:04.106Z,16.96
2022-09-02T08:06:34.731Z,17.00
2022-09-02T08:09:04.613Z,17.13
2022-09-02T08:11:32.802Z,17.25
2022-09-02T08:14:00.648Z,17.15
2022-09-02T08:16:27.472Z,17.19
2022-09-02T08:18:54.547Z,17.23
2022-09-02T08:21:21.830Z,17.39
2022-09-02T08:23:50.589Z,17.42
2022-09-02T08:26:18.524Z,17.34
2022-09-02T08:28:46.243Z,17.62
2022-09-02T08:31:13.024Z,17.60
2022-09-02T08:33:39.684Z,17.65
2022-09-02T08:36:09.396Z,17.82
2022-09-02T08:38:36.865Z,17.95
2022-09-02T08:41:13.798Z,18.02
2022-09-02T08:43:43.352Z,18.17
2022-09-02T08:46:15.014Z,18.26
2022-09-02T08:48:55.250Z,18.10
2022-09-02T08:51:53.829Z,18.33
2022-09-02T08:54:28.351Z,18.52
2022-09-02T08:56:56.112Z,18.53
2022-09-02T08:59:28.693Z,18.65
2022-09-02T09:02:21.712Z,18.82
2022-09-02T09:05:25.552Z,18.75
2022-09-02T09:08:22.255Z,18.79
2022-09-02T09:11:01.816Z,18.90
2022-09-02T09:13:53.120Z,18.93
2022-09-02T09:16:35.007Z,19.11
2022-09-02T09:19:16.774Z,19.21
2022-09-02T09:21:44.448Z,19.31
2022-09-02T09:24:36.884Z,19.38
2022-09-02T09:27:09.453Z,19.41
2022-09-02T09:29:36.453Z,19.52
2022-09-02T09:32:04.522Z,19.70
2022-09-02T09:34:53.072Z,19.69
2022-09-02T09:37:35.748Z,19.75
2022-09-02T09:40:21.712Z,19.69
2022-09-02T09:42:50.034Z,19.62
2022-09-02T09:45:22.073Z,19.73
2022-09-02T09:48:19.014Z,19.82
2022-09-02T09:50:47.758Z,19.74
2022-09-02T09:53:20.024Z,19.90
2022-09-02T09:55:54.259Z,19.75
2022-09-02T09:58:30.961Z,19.79
2022-09-02T10:01:00.882Z,19.73
2022-09-02T10:03:32.837Z,19.62
2022-09-02T10:06:18.434Z,19.95
2022-09-02T10:09:06.288Z,19.88
2022-09-02T10:11:37.820Z,19.81
2022-09-02T10:14:10.070Z,19.93
2022-09-02T10:16:53.722Z,19.97
2022-09-02T10:19:34.314Z,19.91
2022-09-02T10:22:06.186Z,20.02
2022-09-02T10:24:32.734Z,20.03
2022-09-02T10:27:00.540Z,20.08
2022-09-02T10:29:52.918Z,20.08
2022-09-02T10:32:39.712Z,20.23
2022-09-02T10:35:12.429Z,20.28
2022-09-02T10:38:33.276Z,20.20
2022-09-02T10:41:16.638Z,20.36
2022-09-02T10:44:00.050Z,20.36
2022-09-02T10:46:35.575Z,20.34
2022-09-02T10:49:05.008Z,20.32
2022-09-02T10:52:05.563Z,20.47
2022-09-02T10:54:48.172Z,20.40
2022-09-02T10:57:20.144Z,20.55
2022-09-02T11:00:27.410Z,20.63
2022-09-02T11:02:56.843Z,20.62
2022-09-02T11:05:42.305Z,20.67
2022-09-02T11:08:09.911Z,20.70
2022-09-02T11:10:41.497Z,20.86
2022-09-02T11:13:31.529Z,20.81
2022-09-02T11:16:15.330Z,20.81
2022-09-02T11:18:50.630Z,20.94
2022-09-02T11:21:38.912Z,20.78
2022-09-02T11:24:13.534Z,20.92
2022-09-02T11:26:54.441Z,20.79
2022-09-02T11:29:26.904Z,20.80
2022-09-02T11:32:35.066Z,20.77
2022-09-02T11:35:07.907Z,20.62
2022-09-02T11:37:42.980Z,20.58
2022-09-02T11:40:33.779Z,20.77
2022-09-02T11:43:04.005Z,21.05
2022-09-02T11:45:44.206Z,20.85
2022-09-02T11:48:50.837Z,20.61
2022-09-02T11:51:47.240Z,20.47
2022-09-02T11:54:23.374Z,20.70
2022-09-02T11:57:16.202Z,20.90
2022-09-02T11:59:51.947Z,20.71
2022-09-02T12:02:56.469Z,20.94
2022-09-02T12:05:30.309Z,21.13
2022-09-02T12:08:48.970Z,21.00
2022-09-02T12:11:59.846Z,21.30
2022-09-02T12:14:31.761Z,21.31
2022-09-02T12:17:03.757Z,21.10
2022-09-02T12:19:41.244Z,21.26
2022-09-02T12:22:17.178Z,21.23
2022-09-02T12:25:05.017Z,21.21
2022-09-02T12:27:36.961Z,21.12
2022-09-02T12:30:15.712Z,21.22
2022-09-02T12:32:46.262Z,21.33
2022-09-02T12:35:34.907Z,21.59
2022-09-02T12:38:12.614Z,21.76
2022-09-02T12:41:22.107Z,21.95
2022-09-02T12:44:02.559Z,22.04
2022-09-02T12:46:51.214Z,22.35
2022-09-02T12:49:43.002Z,22.30
2022-09-02T12:52:12.199Z,22.26
2022-09-02T12:54:38.668Z,22.40
2022-09-02T12:57:09.847Z,22.68
2022-09-02T12:59:40.043Z,22.32
2022-09-02T13:02:30.172Z,22.06
2022-09-02T13:05:10.577Z,22.21
2022-09-02T13:07:43.678Z,22.29
2022-09-02T13:10:52.753Z,22.66
2022-09-02T13:13:47.307Z,22.75
2022-09-02T13:16:38.953Z,23.04
2022-09-02T13:19:46.441Z,23.11
2022-09-02T13:22:46.288Z,22.73
2022-09-02T13:25:25.100Z,22.69
2022-09-02T13:28:38.423Z,22.66
2022-09-02T13:31:25.756Z,22.74
2022-09-02T13:34:05.505Z,22.64
2022-09-02T13:36:45.762Z,22.33
2022-09-02T13:39:28.634Z,22.62
2022-09-02T13:41:55.337Z,22.65
2022-09-02T13:44:26.571Z,22.72
2022-09-02T13:46:55.246Z,22.82
2022-09-02T13:49:37.661Z,22.37
2022-09-02T13:52:07.280Z,22.04
2022-09-02T13:54:37.230Z,21.96
2022-09-02T13:57:07.079Z,22.04
2022-09-02T13:59:33.555Z,22.28
2022-09-02T14:02:00.221Z,22.22
2022-09-02T14:04:27.755Z,21.93
2022-09-02T14:06:54.668Z,22.02
2022-09-02T14:09:29.743Z,22.26
2022-09-02T14:11:58.957Z,22.41
2022-09-02T14:14:26.318Z,22.39
2022-09-02T14:16:53.076Z,22.30
2022-09-02T14:19:22.394Z,22.30
2022-09-02T14:21:56.030Z,21.99
2022-09-02T14:24:29.024Z,22.15
2022-09-02T14:27:00.557Z,22.22
2022-09-02T14:29:32.057Z,22.46
2022-09-02T14:32:15.629Z,22.69
2022-09-02T14:34:47.293Z,22.76
2022-09-02T14:37:18.995Z,22.63
2022-09-02T14:40:12.672Z,22.49
2022-09-02T14:42:45.545Z,22.27
2022-09-02T14:45:13.086Z,21.98
2022-09-02T14:47:40.928Z,21.84
2022-09-02T14:50:15.362Z,21.82
2022-09-02T14:52:48.144Z,21.55
2022-09-02T14:55:52.402Z,21.49
2022-09-02T14:58:20.988Z,21.71
2022-09-02T15:00:56.124Z,21.69
2022-09-02T15:03:24.049Z,21.67
2022-09-02T15:05:52.414Z,21.90
2022-09-02T15:08:19.593Z,22.20
2022-09-02T15:10:46.636Z,22.18
2022-09-02T15:13:18.062Z,21.94
2022-09-02T15:15:44.680Z,21.78
2022-09-02T15:18:12.595Z,21.80
2022-09-02T15:20:39.159Z,21.63
2022-09-02T15:23:05.706Z,21.67
2022-09-02T15:25:34.221Z,21.87
2022-09-02T15:28:01.103Z,21.97
2022-09-02T15:30:28.040Z,21.89
2022-09-02T15:32:54.573Z,21.94
2022-09-02T15:35:21.277Z,22.00
2022-09-02T15:37:50.262Z,21.91
2022-09-02T15:40:17.008Z,21.88
2022-09-02T15:42:43.548Z,22.00
2022-09-02T15:45:10.474Z,22.11
2022-09-02T15:47:38.274Z,22.25
2022-09-02T15:50:06.309Z,22.08
2022-09-02T15:52:35.057Z,21.94
2022-09-02T15:55:02.069Z,22.11
2022-09-02T15:57:29.914Z,22.05
2022-09-02T15:59:56.634Z,21.93
2022-09-02T16:02:23.513Z,21.75
2022-09-02T16:04:50.105Z,21.70
2022-09-02T16:07:17.401Z,21.59
2022-09-02T16:09:44.095Z,21.67
2022-09-02T16:12:11.193Z,21.73
2022-09-02T16:14:37.737Z,21.77
2022-09-02T16:17:04.584Z,21.65
2022-09-02T16:19:31.293Z,21.66
2022-09-02T16:21:58.646Z,21.56
2022-09-02T16:24:25.395Z,21.42
2022-09-02T16:26:52.129Z,21.25
2022-09-02T16:29:19.818Z,21.17
2022-09-02T16:32:13.940Z,21.28
2022-09-02T16:34:38.392Z,21.15
2022-09-02T16:37:05.963Z,21.10
2022-09-02T16:39:33.296Z,20.95
2022-09-02T16:42:04.333Z,20.85
2022-09-02T16:44:34.393Z,20.78
2022-09-02T16:47:01.256Z,20.83
2022-09-02T16:49:28.097Z,20.68
2022-09-02T16:51:58.079Z,20.51
2022-09-02T16:54:30.973Z,20.35
2022-09-02T16:57:00.283Z,20.38
2022-09-02T16:59:27.403Z,20.35
2022-09-02T17:01:54.261Z,20.28
2022-09-02T17:04:21.392Z,20.28
2022-09-02T17:06:48.450Z,20.32
2022-09-02T17:09:16.707Z,20.28
2022-09-02T17:11:45.405Z,20.27
2022-09-02T17:14:15.242Z,20.14
2022-09-02T17:16:45.636Z,20.13
2022-09-02T17:19:21.327Z,20.07
2022-09-02T17:21:51.164Z,20.06
2022-09-02T17:24:18.882Z,20.00
2022-09-02T17:26:50.657Z,19.89
2022-09-02T17:32:09.675Z,19.75
2022-09-02T17:34:36.927Z,19.54
2022-09-02T17:37:04.653Z,19.54
2022-09-02T17:39:31.390Z,19.51
2022-09-02T17:42:02.131Z,19.44
2022-09-02T17:44:40.714Z,19.42
2022-09-02T17:47:11.173Z,19.27
2022-09-02T17:49:41.267Z,19.16
2022-09-02T17:52:08.580Z,18.95
2022-09-02T17:54:37.332Z,18.96
2022-09-02T17:57:43.152Z,18.85
2022-09-02T18:00:19.281Z,18.66
2022-09-02T18:03:13.424Z,18.53
2022-09-02T18:06:09.130Z,18.41
2022-09-02T18:08:48.945Z,18.35
2022-09-02T18:11:15.890Z,18.29
2022-09-02T18:14:07.455Z,18.27
2022-09-02T18:16:51.348Z,18.09
2022-09-02T18:19:44.056Z,17.95
2022-09-02T18:22:44.453Z,17.96
2022-09-02T18:25:17.097Z,17.79
2022-09-02T18:28:06.611Z,17.58
2022-09-02T18:30:58.322Z,17.61
2022-09-02T18:33:34.607Z,17.55
2022-09-02T18:36:19.505Z,17.37
2022-09-02T18:39:18.110Z,17.12
2022-09-02T18:42:06.181Z,17.10
2022-09-02T18:44:52.024Z,17.10
2022-09-02T18:47:28.980Z,17.16
2022-09-02T18:49:58.559Z,17.15
2022-09-02T18:52:28.252Z,17.10
2022-09-02T18:55:03.125Z,17.17
2022-09-02T18:57:37.049Z,17.13
2022-09-02T19:00:11.317Z,17.10
2022-09-02T19:02:49.196Z,17.11
2022-09-02T19:05:21.039Z,17.00
2022-09-02T19:08:14.923Z,17.02
2022-09-02T19:10:41.507Z,17.05
2022-09-02T19:13:08.380Z,17.04
2022-09-02T19:15:36.801Z,16.81
2022-09-02T19:18:03.403Z,17.00
2022-09-02T19:20:31.986Z,16.88
2022-09-02T19:22:59.356Z,16.88
2022-09-02T19:25:29.277Z,16.83
2022-09-02T19:27:57.915Z,16.97
2022-09-02T19:30:25.309Z,16.87
2022-09-02T19:32:58.390Z,16.88
2022-09-02T19:35:28.125Z,16.85
2022-09-02T19:37:55.352Z,16.74
2022-09-02T19:40:26.720Z,16.72
2022-09-02T19:42:54.978Z,16.68
2022-09-02T19:45:22.961Z,16.67
2022-09-02T19:48:08.119Z,16.63
2022-09-02T19:50:44.040Z,16.71
2022-09-02T19:53:22.417Z,16.52
2022-09-02T19:55:51.927Z,16.38
2022-09-02T19:58:19.187Z,16.28
2022-09-02T20:00:47.527Z,16.34
2022-09-02T20:03:15.149Z,16.42
2022-09-02T20:05:42.507Z,16.33
2022-09-02T20:08:09.492Z,16.34
2022-09-02T20:10:37.389Z,16.26
2022-09-02T20:13:04.733Z,16.30
2022-09-02T20:15:31.677Z,16.18
2022-09-02T20:18:09.311Z,16.20
2022-09-02T20:20:36.046Z,16.20
2022-09-02T20:23:02.904Z,16.22
2022-09-02T20:25:56.168Z,16.17
2022-09-02T20:28:50.642Z,16.10
2022-09-02T20:31:56.470Z,16.08
2022-09-02T20:34:50.127Z,16.05
2022-09-02T20:37:27.068Z,16.07
2022-09-02T20:40:18.953Z,16.11
2022-09-02T20:43:04.416Z,16.10
2022-09-02T20:45:56.285Z,16.00
2022-09-02T20:48:44.242Z,16.09
2022-09-02T20:51:30.300Z,16.09
2022-09-02T20:54:07.543Z,16.07
2022-09-02T20:56:40.243Z,15.97
2022-09-02T20:59:26.863Z,15.97
2022-09-02T21:01:57.377Z,15.93
2022-09-02T21:04:40.139Z,15.86
2022-09-02T21:07:13.549Z,15.89
2022-09-02T21:09:59.994Z,15.86
2022-09-02T21:12:37.251Z,15.83
2022-09-02T21:15:38.732Z,15.79
2022-09-02T21:18:47.128Z,15.91
2022-09-02T21:21:23.610Z,15.77
2022-09-02T21:23:56.204Z,15.75
2022-09-02T21:26:36.325Z,15.72
2022-09-02T21:29:25.064Z,15.71
2022-09-02T21:32:06.406Z,15.72
2022-09-02T21:34:45.915Z,15.69
2022-09-02T21:37:13.475Z,15.75
2022-09-02T21:39:45.982Z,15.73
2022-09-02T21:42:30.917Z,15.66
2022-09-02T21:44:57.456Z,15.65
2022-09-02T21:47:28.334Z,15.71
2022-09-02T21:50:16.561Z,15.59
2022-09-02T21:53:11.449Z,15.58
2022-09-02T21:56:08.898Z,15.51
2022-09-02T21:59:14.733Z,15.55
2022-09-02T22:02:10.713Z,15.54
2022-09-02T22:04:40.215Z,15.48
2022-09-02T22:07:33.556Z,15.51
2022-09-02T22:10:07.906Z,15.42
2022-09-02T22:12:39.826Z,15.45
2022-09-02T22:15:23.744Z,15.37
2022-09-02T22:17:55.537Z,15.32
2022-09-02T22:20:32.030Z,15.40
2022-09-02T22:23:25.184Z,15.38
2022-09-02T22:25:55.430Z,15.32
2022-09-02T22:28:31.861Z,15.32
2022-09-02T22:31:07.788Z,15.31
2022-09-02T22:33:42.797Z,15.31
2022-09-02T22:36:22.635Z,15.30
2022-09-02T22:38:49.808Z,15.28
2022-09-02T22:41:35.202Z,15.34
2022-09-02T22:44:05.393Z,15.32
2022-09-02T22:46:53.639Z,15.31
2022-09-02T22:49:40.520Z,15.28
2022-09-02T22:52:46.411Z,15.24
2022-09-02T22:55:30.661Z,15.24
2022-09-02T22:58:22.060Z,15.18
2022-09-02T23:01:00.469Z,15.14
2022-09-02T23:03:42.989Z,15.07
2022-09-02T23:06:30.400Z,15.11
2022-09-02T23:09:05.707Z,15.05
2022-09-02T23:11:54.008Z,15.11
2022-09-02T23:14:41.141Z,15.04
2022-09-02T23:17:19.399Z,15.07
2022-09-02T23:20:08.662Z,14.94
2022-09-02T23:22:51.496Z,14.82
2022-09-02T23:25:30.289Z,14.92
2022-09-02T23:27:56.790Z,14.85
2022-09-02T23:30:30.548Z,14.85
2022-09-02T23:33:10.157Z,14.72
2022-09-02T23:35:48.109Z,14.75
2022-09-02T23:38:47.372Z,14.72
2022-09-02T23:41:15.391Z,14.73
2022-09-02T23:43:43.761Z,14.68
2022-09-02T23:46:20.151Z,14.69
2022-09-02T23:48:46.694Z,14.65
2022-09-02T23:51:29.699Z,14.60
2022-09-02T23:54:05.486Z,14.71
2022-09-02T23:56:50.803Z,14.60
2022-09-02T23:59:26.404Z,14.61
